Home > Products > Valid Products > MTR

000
SAUS44 KLZK 302157 COR
MTRMWT
METAR KMWT 302153Z AUTO 00000KT 10SM CLR 27/18 A2985 RMK AO2 SLP101
T02670178





000
SAUS44 KLZK 302056 COR
MTRMWT
METAR KMWT 302053Z AUTO 00000KT 10SM FEW046 28/16 A2986 RMK AO2
SLP103 T02830161 56020





000
SAUS44 KLZK 301954
MTRMWT
METAR KMWT 301953Z AUTO 00000KT 10SM CLR 28/16 A2987 RMK AO2 SLP107
T02780161





000
SAUS44 KLZK 301854
MTRMWT
METAR KMWT 301853Z AUTO VRB04KT 10SM CLR 27/16 A2990 RMK AO2 SLP116
T02720161





000
SAUS44 KLZK 301754
MTRMWT
METAR KMWT 301753Z AUTO VRB04KT 10SM CLR 27/16 A2992 RMK AO2 SLP123
T02720161 10278 20133 58009





000
SAUS44 KLZK 301654
MTRMWT
METAR KMWT 301653Z AUTO 13005KT 10SM CLR 26/16 A2994 RMK AO2 SLP129
T02610161





000
SAUS44 KLZK 301554
MTRMWT
METAR KMWT 301553Z AUTO 00000KT 10SM SCT085 24/18 A2995 RMK AO2
SLP133 T02440178





000
SAUS44 KLZK 301454
MTRMWT
METAR KMWT 301453Z AUTO 00000KT 10SM CLR 21/17 A2995 RMK AO2 SLP135
T02110172 53002





000
SAUS44 KLZK 301354
MTRMWT
METAR KMWT 301353Z AUTO 00000KT 8SM CLR 17/16 A2995 RMK AO2 SLP135
T01670156





000
SAUS44 KLZK 301254
MTRMWT
METAR KMWT 301253Z AUTO 00000KT 4SM BR CLR 14/13 A2995 RMK AO2
SLP136 T01390133





000
SAUS44 KLZK 301241
MTRMWT
SPECI KMWT 301240Z AUTO 00000KT 3SM BR CLR 14/13 A2995 RMK AO2
T01390128





000
SAUS44 KLZK 301214
MTRMWT
SPECI KMWT 301213Z AUTO 00000KT 2 1/2SM BR CLR 13/13 A2994 RMK AO2
T01330128





000
SAUS44 KLZK 301154
MTRMWT
METAR KMWT 301153Z AUTO 00000KT 3SM BR CLR 13/13 A2994 RMK AO2
SLP134 T01330128 10161 20133 50002





000
SAUS44 KLZK 301140
MTRMWT
SPECI KMWT 301139Z AUTO 00000KT 2 1/2SM BR CLR 14/13 A2994 RMK AO2
T01390128





000
SAUS44 KLZK 301054
MTRMWT
METAR KMWT 301053Z AUTO 00000KT 3SM BR CLR 14/13 A2994 RMK AO2
SLP133 T01390128





000
SAUS44 KLZK 300954
MTRMWT
METAR KMWT 300953Z AUTO 00000KT 4SM BR CLR 14/13 A2994 RMK AO2
SLP129 T01440133





000
SAUS44 KLZK 300940
MTRMWT
SPECI KMWT 300939Z AUTO 00000KT 3SM BR CLR 14/13 A2994 RMK AO2
T01440133





000
SAUS44 KLZK 300921
MTRMWT
SPECI KMWT 300920Z AUTO 00000KT 2 1/2SM BR CLR 14/14 A2994 RMK AO2
T01440139





000
SAUS44 KLZK 300855
MTRMWT
METAR KMWT 300853Z AUTO 00000KT 4SM BR CLR 15/14 A2994 RMK AO2
SLP127 T01500139 51002





000
SAUS44 KLZK 300850
MTRMWT
SPECI KMWT 300849Z AUTO 00000KT 3SM BR CLR 14/14 A2993 RMK AO2





000
SAUS44 KLZK 300840
MTRMWT
SPECI KMWT 300839Z AUTO 00000KT 2 1/2SM BR CLR 15/14 A2993 RMK AO2
T01500139





000
SAUS44 KLZK 300754
MTRMWT
METAR KMWT 300753Z AUTO 00000KT 4SM BR CLR 15/14 A2993 RMK AO2
SLP127 T01500144





000
SAUS44 KLZK 300655
MTRMWT
METAR KMWT 300653Z AUTO 31003KT 5SM BR CLR 16/14 A2993 RMK AO2
SLP126 T01560144





000
SAUS44 KLZK 300615
MTRMWT
SPECI KMWT 300613Z AUTO 00000KT 4SM BR CLR 16/15 A2993 RMK AO2
T01610150





000
SAUS44 KLZK 300604 COR
MTRMWT
SPECI KMWT 300601Z AUTO 00000KT 2SM BR CLR 16/15 A2993 RMK AO2 VIS 1
1/4V4 T01610150





000
SAUS44 KLZK 300554
MTRMWT
METAR KMWT 300553Z AUTO 00000KT 3SM BR CLR 16/15 A2993 RMK AO2
SLP126 T01610150 10228 20161 403060133 58005





000
SAUS44 KLZK 300454
MTRMWT
METAR KMWT 300453Z AUTO 00000KT 4SM BR CLR 17/16 A2994 RMK AO2
SLP130 T01670156





000
SAUS44 KLZK 300354
MTRMWT
METAR KMWT 300353Z AUTO 00000KT 5SM BR CLR 18/17 A2995 RMK AO2
SLP133 T01780167





000
SAUS44 KLZK 300254
MTRMWT
METAR KMWT 300253Z AUTO 00000KT 8SM CLR 18/17 A2995 RMK AO2 SLP134
T01830172 50003





000
SAUS44 KLZK 300154
MTRMWT
METAR KMWT 300153Z AUTO 00000KT 10SM CLR 19/17 A2995 RMK AO2 SLP135
T01940172





000
SAUS44 KLZK 300054
MTRMWT
METAR KMWT 300053Z AUTO 00000KT 10SM CLR 21/17 A2994 RMK AO2 SLP133
T02060172





000
SAUS44 KLZK 292354
MTRMWT
METAR KMWT 292353Z AUTO 00000KT 10SM CLR 23/17 A2994 RMK AO2 SLP131
T02280172 10306 20228 56007





000
SAUS44 KLZK 292254
MTRMWT
METAR KMWT 292253Z AUTO 00000KT 10SM CLR 26/17 A2994 RMK AO2 SLP131
T02610167





000
SAUS44 KLZK 292154
MTRMWT
METAR KMWT 292153Z AUTO 08004KT 10SM CLR 29/14 A2994 RMK AO2 SLP130
T02940139





000
SAUS44 KLZK 292054
MTRMWT
METAR KMWT 292053Z AUTO VRB04KT 10SM CLR 30/14 A2996 RMK AO2 SLP135
T03000139 56022





000
SAUS44 KLZK 291954
MTRMWT
METAR KMWT 291953Z AUTO 00000KT 10SM CLR 30/14 A2997 RMK AO2 SLP139
T03000144





000
SAUS44 KLZK 291854
MTRMWT
METAR KMWT 291853Z AUTO VRB04KT 10SM CLR 29/14 A3000 RMK AO2 SLP148
T02890144





000
SAUS44 KLZK 291754
MTRMWT
METAR KMWT 291753Z AUTO VRB05KT 10SM CLR 28/16 A3002 RMK AO2 SLP157
T02830156 10283 20133 58010





000
SAUS44 KLZK 291654
MTRMWT
METAR KMWT 291653Z AUTO 00000KT 10SM CLR 27/17 A3004 RMK AO2 SLP163
T02720167





000
SAUS44 KLZK 291554
MTRMWT
METAR KMWT 291553Z AUTO 00000KT 10SM CLR 24/17 A3005 RMK AO2 SLP168
T02440167





000
SAUS44 KLZK 291454
MTRMWT
METAR KMWT 291453Z AUTO 00000KT 10SM CLR 22/16 A3005 RMK AO2 SLP169
T02170161 51009





000
SAUS44 KLZK 291354
MTRMWT
METAR KMWT 291353Z AUTO 00000KT 10SM CLR 18/16 A3005 RMK AO2 SLP169
T01780156





000
SAUS44 KLZK 291254
MTRMWT
METAR KMWT 291253Z AUTO 00000KT 8SM CLR 14/13 A3004 RMK AO2 SLP168
T01390128





000
SAUS44 KLZK 291156 COR
MTRMWT
METAR KMWT 291153Z AUTO 00000KT 4SM BR CLR 13/13 A3002 RMK AO2
SLP161 T01330128 10161 20133 52003





000
SAUS44 KLZK 291057 COR
MTRMWT
METAR KMWT 291053Z AUTO 00000KT 6SM BR CLR 14/13 A3002 RMK AO2
SLP159 T01390133





000
SAUS44 KLZK 290954
MTRMWT
METAR KMWT 290953Z AUTO 00000KT 8SM CLR 14/13 A3002 RMK AO2 SLP155
T01440133





000
SAUS44 KLZK 290854
MTRMWT
METAR KMWT 290853Z AUTO 00000KT 8SM CLR 14/14 A3001 RMK AO2 SLP155
T01440139 58004





000
SAUS44 KLZK 290754
MTRMWT
METAR KMWT 290753Z AUTO 00000KT 7SM CLR 15/14 A3002 RMK AO2 SLP156
T01500139





000
SAUS44 KLZK 290654
MTRMWT
METAR KMWT 290653Z AUTO 00000KT 8SM CLR 16/14 A3002 RMK AO2 SLP158
T01560144





000
SAUS44 KLZK 290554
MTRMWT
METAR KMWT 290553Z AUTO 00000KT 9SM CLR 16/15 A3003 RMK AO2 SLP159
T01610150 10228 20161 402940150 58004





000
SAUS44 KLZK 290454
MTRMWT
METAR KMWT 290453Z AUTO 00000KT 10SM CLR 17/16 A3003 RMK AO2 SLP161
T01670156





000
SAUS44 KLZK 290354
MTRMWT
METAR KMWT 290353Z AUTO 00000KT 10SM CLR 17/16 A3004 RMK AO2 SLP163
T01720161





000
SAUS44 KLZK 290254
MTRMWT
METAR KMWT 290253Z AUTO 00000KT 10SM CLR 18/17 A3004 RMK AO2 SLP166
T01780167 51007





000
SAUS44 KLZK 290154
MTRMWT
METAR KMWT 290153Z AUTO 00000KT 10SM CLR 19/17 A3003 RMK AO2 SLP164
T01890172





000
SAUS44 KLZK 290054
MTRMWT
METAR KMWT 290053Z AUTO 00000KT 10SM CLR 20/17 A3003 RMK AO2 SLP162
T02000172





000
SAUS44 KLZK 282354
MTRMWT
METAR KMWT 282353Z AUTO 00000KT 10SM CLR 23/17 A3002 RMK AO2 SLP158
T02280167 10294 20228 55001





000
SAUS44 KLZK 282254
MTRMWT
METAR KMWT 282253Z AUTO 00000KT 10SM CLR 28/15 A3001 RMK AO2 SLP153
T02830150





000
SAUS44 KLZK 282154
MTRMWT
METAR KMWT 282153Z AUTO VRB04KT 10SM CLR 29/14 A3001 RMK AO2 SLP153
T02890139





000
SAUS44 KLZK 282054
MTRMWT
METAR KMWT 282053Z AUTO VRB03KT 10SM CLR 29/14 A3002 RMK AO2 SLP156
T02940144 56022





000
SAUS44 KLZK 281954
MTRMWT
METAR KMWT 281953Z AUTO 09005KT 10SM CLR 29/14 A3004 RMK AO2 SLP161
T02890144





000
SAUS44 KLZK 281854
MTRMWT
METAR KMWT 281853Z AUTO VRB04KT 10SM CLR 28/15 A3006 RMK AO2 SLP169
T02780150





000
SAUS44 KLZK 281754
MTRMWT
METAR KMWT 281753Z AUTO VRB05KT 10SM CLR 27/16 A3009 RMK AO2 SLP180
T02670161 10272 20156 58007





000
SAUS44 KLZK 281654
MTRMWT
METAR KMWT 281653Z AUTO 11004KT 10SM CLR 26/17 A3011 RMK AO2 SLP186
T02560172





000
SAUS44 KLZK 281554
MTRMWT
METAR KMWT 281553Z AUTO VRB03KT 10SM CLR 23/18 A3011 RMK AO2 SLP190
T02330183





000
SAUS44 KLZK 281511
MTRMWT
SPECI KMWT 281510Z AUTO 00000KT 10SM FEW004 21/18 A3011 RMK AO2
T02060183





000
SAUS44 KLZK 281454
MTRMWT
METAR KMWT 281453Z AUTO 00000KT 10SM BKN003 19/18 A3011 RMK AO2 CIG
002V007 SLP189 T01940183 51005





000
SAUS44 KLZK 281425
MTRMWT
SPECI KMWT 281424Z AUTO 00000KT 3SM BR OVC003 18/18 A3011 RMK AO2
T01830178





000
SAUS44 KLZK 281420
MTRMWT
SPECI KMWT 281418Z AUTO 00000KT 1SM BR OVC003 18/18 A3011 RMK AO2
T01830178





000
SAUS44 KLZK 281404
MTRMWT
SPECI KMWT 281403Z AUTO 00000KT 1/4SM FG VV003 17/17 A3011 RMK AO2
T01720167





000
SAUS44 KLZK 281355
MTRMWT
METAR KMWT 281353Z AUTO 00000KT M1/4SM FG VV003 17/17 A3011 RMK AO2
SLP189 T01720167





000
SAUS44 KLZK 281350
MTRMWT
SPECI KMWT 281349Z AUTO 00000KT 1/4SM FG VV003 17/17 A3011 RMK AO2





000
SAUS44 KLZK 281336
MTRMWT
SPECI KMWT 281335Z AUTO 00000KT M1/4SM FG VV003 17/16 A3011 RMK AO2
T01670161





000
SAUS44 KLZK 281303
MTRMWT
SPECI KMWT 281302Z AUTO 00000KT 1/4SM FG OVC003 16/16 A3010 RMK AO2
T01610156





000
SAUS44 KLZK 281257
MTRMWT
SPECI KMWT 281256Z AUTO 00000KT 1 1/2SM BR BKN004 16/15 A3010 RMK
AO2 T01610150





000
SAUS44 KLZK 281254
MTRMWT
METAR KMWT 281253Z AUTO 00000KT 4SM BR BKN004 16/15 A3010 RMK AO2
SLP185 T01610150





000
SAUS44 KLZK 281206
MTRMWT
SPECI KMWT 281205Z AUTO 00000KT 4SM BR OVC005 16/14 A3008 RMK AO2
T01560144





000
SAUS44 KLZK 281154
MTRMWT
METAR KMWT 281153Z AUTO 00000KT 4SM BR BKN004 16/14 A3008 RMK AO2
SLP179 T01560144 10172 20150 53008





000
SAUS44 KLZK 281125
MTRMWT
SPECI KMWT 281124Z AUTO 00000KT 4SM BR BKN004 16/14 A3008 RMK AO2
T01560144





000
SAUS44 KLZK 281116
MTRMWT
SPECI KMWT 281115Z AUTO 00000KT 4SM BR SCT004 15/14 A3007 RMK AO2
T01500144





000
SAUS44 KLZK 281054
MTRMWT
METAR KMWT 281053Z AUTO 00000KT 4SM BR CLR 16/14 A3007 RMK AO2
SLP174 T01560144





000
SAUS44 KLZK 280954
MTRMWT
METAR KMWT 280953Z AUTO 00000KT 4SM BR SCT001 SCT080 16/15 A3006 RMK
AO2 SLP171 T01560150





000
SAUS44 KLZK 280856
MTRMWT
SPECI KMWT 280856Z AUTO 00000KT 3SM BR FEW004 16/15 A3005 RMK AO2
T01610150





000
SAUS44 KLZK 280846
MTRMWT
SPECI KMWT 280844Z AUTO 00000KT 1 3/4SM BR FEW004 16/16 A3005 RMK
AO2 T01610156





000
SAUS44 KLZK 280841
MTRMWT
SPECI KMWT 280840Z AUTO 00000KT 3SM BR FEW004 16/15 A3005 RMK AO2
T01610150





000
SAUS44 KLZK 280827
MTRMWT
SPECI KMWT 280826Z AUTO 00000KT 2 1/2SM BR FEW004 FEW090 16/16 A3006
RMK AO2 T01610156





000
SAUS44 KLZK 280754
MTRMWT
METAR KMWT 280753Z AUTO 00000KT 4SM BR FEW090 17/16 A3007 RMK AO2
SLP171 T01670156





000
SAUS44 KLZK 280654
MTRMWT
METAR KMWT 280653Z AUTO 00000KT 6SM BR OVC085 17/16 A3006 RMK AO2
SLP170 T01720161





000
SAUS44 KLZK 280554
MTRMWT
METAR KMWT 280553Z AUTO 00000KT 4SM BR CLR 17/16 A3006 RMK AO2
SLP170 T01720161 10244 20172 402890128 58001





000
SAUS44 KLZK 280454
MTRMWT
METAR KMWT 280453Z AUTO 00000KT 5SM BR CLR 18/17 A3007 RMK AO2
SLP173 T01780167





000
SAUS44 KLZK 280354
MTRMWT
METAR KMWT 280353Z AUTO 00000KT 6SM BR CLR 18/17 A3006 RMK AO2
SLP172 T01830172





000
SAUS44 KLZK 280254
MTRMWT
METAR KMWT 280253Z AUTO 00000KT 7SM CLR 19/18 A3006 RMK AO2 SLP173
T01890178 52010





000
SAUS44 KLZK 280154
MTRMWT
METAR KMWT 280153Z AUTO 00000KT 10SM CLR 19/18 A3005 RMK AO2 SLP172
T01940178





000
SAUS44 KLZK 280054
MTRMWT
METAR KMWT 280053Z AUTO 00000KT 10SM CLR 21/18 A3004 RMK AO2 SLP169
T02060183





000
SAUS44 KLZK 272354
MTRMWT
METAR KMWT 272353Z AUTO 00000KT 10SM CLR 24/18 A3003 RMK AO2 SLP164
T02440178 10289 20244 55004





000
SAUS44 KLZK 272256 COR
MTRMWT
METAR KMWT 272253Z AUTO 00000KT 10SM SCT047 27/17 A3003 RMK AO2
SLP161 T02720172





    US Dept of Commerce
    National Oceanic and Atmospheric Administration
    National Weather Service
    1325 East West Highway
    Silver Spring, MD 20910
    Page Author: NWS Internet Services Team
Disclaimer
Information Quality
Credits
Glossary
Privacy Policy
Freedom of Information Act (FOIA)
About Us
Career Opportunities